sensor_id;sensor_type;location;lat;lon;timestamp;pressure;altitude;pressure_sealevel;temperature;humidity
84382;BME280;74572;51.834;5.820;2023-12-20T00:00:14;101632.75;;;4.93;89.93
84382;BME280;74572;51.834;5.820;2023-12-20T00:02:39;101637.38;;;4.89;90.13
84382;BME280;74572;51.834;5.820;2023-12-20T00:05:10;101630.28;;;4.84;89.97
84382;BME280;74572;51.834;5.820;2023-12-20T00:07:35;101630.88;;;4.82;89.95
84382;BME280;74572;51.834;5.820;2023-12-20T00:10:02;101628.72;;;4.76;89.84
84382;BME280;74572;51.834;5.820;2023-12-20T00:12:28;101623.53;;;4.75;89.92
84382;BME280;74572;51.834;5.820;2023-12-20T00:14:53;101626.72;;;4.82;90.70
84382;BME280;74572;51.834;5.820;2023-12-20T00:17:21;101636.41;;;4.97;90.61
84382;BME280;74572;51.834;5.820;2023-12-20T00:19:48;101636.47;;;5.07;90.75
84382;BME280;74572;51.834;5.820;2023-12-20T00:22:13;101637.44;;;5.17;91.01
84382;BME280;74572;51.834;5.820;2023-12-20T00:24:39;101629.63;;;5.25;90.97
84382;BME280;74572;51.834;5.820;2023-12-20T00:27:05;101626.28;;;5.34;90.93
84382;BME280;74572;51.834;5.820;2023-12-20T00:29:32;101625.00;;;5.39;90.98
84382;BME280;74572;51.834;5.820;2023-12-20T00:32:01;101622.91;;;5.44;90.48
84382;BME280;74572;51.834;5.820;2023-12-20T00:34:28;101618.00;;;5.45;90.39
84382;BME280;74572;51.834;5.820;2023-12-20T00:36:53;101617.50;;;5.49;90.13
84382;BME280;74572;51.834;5.820;2023-12-20T00:39:23;101614.44;;;5.43;89.83
84382;BME280;74572;51.834;5.820;2023-12-20T00:41:49;101613.66;;;5.34;89.94
84382;BME280;74572;51.834;5.820;2023-12-20T00:44:14;101622.19;;;5.26;89.42
84382;BME280;74572;51.834;5.820;2023-12-20T00:46:40;101619.78;;;5.17;89.25
84382;BME280;74572;51.834;5.820;2023-12-20T00:49:06;101613.28;;;5.11;89.29
84382;BME280;74572;51.834;5.820;2023-12-20T00:51:31;101614.00;;;5.00;89.35
84382;BME280;74572;51.834;5.820;2023-12-20T00:53:57;101617.75;;;4.95;89.41
84382;BME280;74572;51.834;5.820;2023-12-20T00:56:24;101616.91;;;4.85;89.17
84382;BME280;74572;51.834;5.820;2023-12-20T00:58:50;101616.41;;;4.79;89.47
84382;BME280;74572;51.834;5.820;2023-12-20T01:01:16;101617.63;;;4.74;89.45
84382;BME280;74572;51.834;5.820;2023-12-20T01:03:41;101624.91;;;4.71;89.78
84382;BME280;74572;51.834;5.820;2023-12-20T01:06:07;101619.38;;;4.75;90.06
84382;BME280;74572;51.834;5.820;2023-12-20T01:08:34;101623.47;;;4.83;90.34
84382;BME280;74572;51.834;5.820;2023-12-20T01:11:00;101622.56;;;4.83;90.08
84382;BME280;74572;51.834;5.820;2023-12-20T01:13:27;101636.28;;;4.76;89.62
84382;BME280;74572;51.834;5.820;2023-12-20T01:15:52;101625.84;;;4.63;89.66
84382;BME280;74572;51.834;5.820;2023-12-20T01:18:19;101621.81;;;4.65;90.07
84382;BME280;74572;51.834;5.820;2023-12-20T01:20:44;101618.16;;;4.62;89.91
84382;BME280;74572;51.834;5.820;2023-12-20T01:23:10;101622.56;;;4.64;89.95
84382;BME280;74572;51.834;5.820;2023-12-20T01:25:35;101614.81;;;4.71;90.34
84382;BME280;74572;51.834;5.820;2023-12-20T01:28:01;101623.41;;;4.73;90.14
84382;BME280;74572;51.834;5.820;2023-12-20T01:30:28;101618.84;;;4.69;89.95
84382;BME280;74572;51.834;5.820;2023-12-20T01:32:55;101614.47;;;4.58;89.74
84382;BME280;74572;51.834;5.820;2023-12-20T01:35:21;101611.81;;;4.57;89.79
84382;BME280;74572;51.834;5.820;2023-12-20T01:37:48;101623.53;;;4.56;89.77
84382;BME280;74572;51.834;5.820;2023-12-20T01:40:15;101621.06;;;4.47;89.62
84382;BME280;74572;51.834;5.820;2023-12-20T01:42:45;101631.75;;;4.45;89.99
84382;BME280;74572;51.834;5.820;2023-12-20T01:45:11;101623.16;;;4.43;89.80
84382;BME280;74572;51.834;5.820;2023-12-20T01:47:37;101626.69;;;4.45;90.12
84382;BME280;74572;51.834;5.820;2023-12-20T01:50:03;101618.97;;;4.52;90.53
84382;BME280;74572;51.834;5.820;2023-12-20T01:52:29;101623.31;;;4.63;90.36
84382;BME280;74572;51.834;5.820;2023-12-20T01:54:55;101617.81;;;4.67;90.28
84382;BME280;74572;51.834;5.820;2023-12-20T01:57:29;101628.03;;;4.69;90.20
84382;BME280;74572;51.834;5.820;2023-12-20T01:59:55;101624.84;;;4.61;89.56
84382;BME280;74572;51.834;5.820;2023-12-20T02:02:20;101615.69;;;4.53;89.52
84382;BME280;74572;51.834;5.820;2023-12-20T02:04:46;101613.19;;;4.53;89.61
84382;BME280;74572;51.834;5.820;2023-12-20T02:07:12;101606.84;;;4.48;90.07
84382;BME280;74572;51.834;5.820;2023-12-20T02:09:39;101617.66;;;4.47;89.90
84382;BME280;74572;51.834;5.820;2023-12-20T02:12:05;101610.69;;;4.44;89.65
84382;BME280;74572;51.834;5.820;2023-12-20T02:14:30;101624.00;;;4.52;89.70
84382;BME280;74572;51.834;5.820;2023-12-20T02:16:56;101622.22;;;4.51;89.92
84382;BME280;74572;51.834;5.820;2023-12-20T02:19:24;101627.09;;;4.58;89.89
84382;BME280;74572;51.834;5.820;2023-12-20T02:21:50;101620.88;;;4.55;89.84
84382;BME280;74572;51.834;5.820;2023-12-20T02:24:15;101626.59;;;4.62;90.02
84382;BME280;74572;51.834;5.820;2023-12-20T02:26:43;101617.75;;;4.57;89.89
84382;BME280;74572;51.834;5.820;2023-12-20T02:29:09;101615.69;;;4.53;89.63
84382;BME280;74572;51.834;5.820;2023-12-20T02:31:35;101608.75;;;4.50;89.54
84382;BME280;74572;51.834;5.820;2023-12-20T02:34:00;101614.22;;;4.55;89.81
84382;BME280;74572;51.834;5.820;2023-12-20T02:36:26;101613.25;;;4.63;90.48
84382;BME280;74572;51.834;5.820;2023-12-20T02:38:51;101615.00;;;4.64;89.88
84382;BME280;74572;51.834;5.820;2023-12-20T02:41:16;101621.50;;;4.71;90.04
84382;BME280;74572;51.834;5.820;2023-12-20T02:43:43;101606.78;;;4.75;90.14
84382;BME280;74572;51.834;5.820;2023-12-20T02:46:10;101613.66;;;4.86;90.01
84382;BME280;74572;51.834;5.820;2023-12-20T02:48:38;101610.38;;;4.88;89.76
84382;BME280;74572;51.834;5.820;2023-12-20T02:51:05;101608.00;;;4.89;89.74
84382;BME280;74572;51.834;5.820;2023-12-20T02:53:36;101607.13;;;4.89;89.57
84382;BME280;74572;51.834;5.820;2023-12-20T02:56:01;101607.88;;;4.88;89.61
84382;BME280;74572;51.834;5.820;2023-12-20T02:58:28;101606.84;;;4.85;89.85
84382;BME280;74572;51.834;5.820;2023-12-20T03:00:54;101605.34;;;4.88;89.51
84382;BME280;74572;51.834;5.820;2023-12-20T03:03:19;101608.41;;;4.94;89.62
84382;BME280;74572;51.834;5.820;2023-12-20T03:05:45;101613.22;;;5.01;89.83
84382;BME280;74572;51.834;5.820;2023-12-20T03:08:14;101597.00;;;5.07;89.67
84382;BME280;74572;51.834;5.820;2023-12-20T03:10:39;101590.59;;;5.11;89.71
84382;BME280;74572;51.834;5.820;2023-12-20T03:13:05;101600.22;;;5.15;89.50
84382;BME280;74572;51.834;5.820;2023-12-20T03:15:31;101586.97;;;5.17;89.53
84382;BME280;74572;51.834;5.820;2023-12-20T03:18:00;101585.34;;;5.18;89.01
84382;BME280;74572;51.834;5.820;2023-12-20T03:20:26;101577.44;;;5.05;88.96
84382;BME280;74572;51.834;5.820;2023-12-20T03:22:53;101581.97;;;4.99;88.85
84382;BME280;74572;51.834;5.820;2023-12-20T03:25:21;101589.00;;;4.93;88.88
84382;BME280;74572;51.834;5.820;2023-12-20T03:27:48;101585.13;;;4.96;89.66
84382;BME280;74572;51.834;5.820;2023-12-20T03:30:13;101586.50;;;5.03;89.50
84382;BME280;74572;51.834;5.820;2023-12-20T03:32:39;101590.59;;;5.11;89.25
84382;BME280;74572;51.834;5.820;2023-12-20T03:35:05;101594.41;;;5.16;89.34
84382;BME280;74572;51.834;5.820;2023-12-20T03:37:31;101589.09;;;5.13;88.89
84382;BME280;74572;51.834;5.820;2023-12-20T03:39:57;101582.75;;;5.08;89.18
84382;BME280;74572;51.834;5.820;2023-12-20T03:42:22;101577.53;;;4.96;88.45
84382;BME280;74572;51.834;5.820;2023-12-20T03:44:48;101569.50;;;4.81;89.21
84382;BME280;74572;51.834;5.820;2023-12-20T03:47:13;101565.09;;;4.79;89.41
84382;BME280;74572;51.834;5.820;2023-12-20T03:49:42;101565.44;;;4.73;89.48
84382;BME280;74572;51.834;5.820;2023-12-20T03:52:07;101576.41;;;4.74;89.78
84382;BME280;74572;51.834;5.820;2023-12-20T03:54:35;101572.81;;;4.80;89.81
84382;BME280;74572;51.834;5.820;2023-12-20T03:57:00;101579.59;;;4.81;89.51
84382;BME280;74572;51.834;5.820;2023-12-20T03:59:35;101574.81;;;4.84;89.43
84382;BME280;74572;51.834;5.820;2023-12-20T04:02:01;101567.66;;;4.89;89.31
84382;BME280;74572;51.834;5.820;2023-12-20T04:04:31;101575.78;;;4.95;89.34
84382;BME280;74572;51.834;5.820;2023-12-20T04:06:57;101592.69;;;4.96;89.29
84382;BME280;74572;51.834;5.820;2023-12-20T04:09:22;101579.47;;;4.99;89.32
84382;BME280;74572;51.834;5.820;2023-12-20T04:11:48;101581.22;;;5.00;89.32
84382;BME280;74572;51.834;5.820;2023-12-20T04:14:14;101574.66;;;5.02;88.87
84382;BME280;74572;51.834;5.820;2023-12-20T04:16:39;101579.09;;;5.04;89.15
84382;BME280;74572;51.834;5.820;2023-12-20T04:19:07;101580.25;;;5.08;88.90
84382;BME280;74572;51.834;5.820;2023-12-20T04:21:32;101565.72;;;5.05;89.29
84382;BME280;74572;51.834;5.820;2023-12-20T04:23:57;101583.78;;;5.10;89.00
84382;BME280;74572;51.834;5.820;2023-12-20T04:26:23;101580.25;;;5.08;88.83
84382;BME280;74572;51.834;5.820;2023-12-20T04:28:48;101587.06;;;5.09;88.83
84382;BME280;74572;51.834;5.820;2023-12-20T04:31:14;101582.28;;;5.12;89.16
84382;BME280;74572;51.834;5.820;2023-12-20T04:33:41;101586.09;;;5.17;88.87
84382;BME280;74572;51.834;5.820;2023-12-20T04:36:11;101575.50;;;5.21;88.88
84382;BME280;74572;51.834;5.820;2023-12-20T04:38:36;101569.97;;;5.25;88.54
84382;BME280;74572;51.834;5.820;2023-12-20T04:41:04;101572.97;;;5.21;88.45
84382;BME280;74572;51.834;5.820;2023-12-20T04:43:31;101570.69;;;5.14;88.40
84382;BME280;74572;51.834;5.820;2023-12-20T04:45:56;101576.97;;;5.09;88.70
84382;BME280;74572;51.834;5.820;2023-12-20T04:48:22;101571.31;;;5.11;88.92
84382;BME280;74572;51.834;5.820;2023-12-20T04:50:48;101584.31;;;5.16;88.96
84382;BME280;74572;51.834;5.820;2023-12-20T04:53:13;101572.75;;;5.18;88.71
84382;BME280;74572;51.834;5.820;2023-12-20T04:55:39;101581.69;;;5.25;88.56
84382;BME280;74572;51.834;5.820;2023-12-20T04:58:04;101572.91;;;5.30;88.97
84382;BME280;74572;51.834;5.820;2023-12-20T05:00:30;101569.34;;;5.28;88.69
84382;BME280;74572;51.834;5.820;2023-12-20T05:02:56;101580.00;;;5.34;88.52
84382;BME280;74572;51.834;5.820;2023-12-20T05:05:22;101556.53;;;5.35;88.58
84382;BME280;74572;51.834;5.820;2023-12-20T05:07:48;101564.72;;;5.42;88.35
84382;BME280;74572;51.834;5.820;2023-12-20T05:10:14;101561.47;;;5.43;88.45
84382;BME280;74572;51.834;5.820;2023-12-20T05:12:39;101559.34;;;5.48;88.21
84382;BME280;74572;51.834;5.820;2023-12-20T05:15:06;101545.47;;;5.53;88.11
84382;BME280;74572;51.834;5.820;2023-12-20T05:17:32;101544.19;;;5.58;87.78
84382;BME280;74572;51.834;5.820;2023-12-20T05:19:57;101533.13;;;5.56;87.77
84382;BME280;74572;51.834;5.820;2023-12-20T05:22:23;101535.25;;;5.62;87.94
84382;BME280;74572;51.834;5.820;2023-12-20T05:24:48;101537.53;;;5.59;87.84
84382;BME280;74572;51.834;5.820;2023-12-20T05:27:14;101540.94;;;5.59;88.08
84382;BME280;74572;51.834;5.820;2023-12-20T05:29:39;101541.59;;;5.67;87.83
84382;BME280;74572;51.834;5.820;2023-12-20T05:32:05;101534.78;;;5.66;87.67
84382;BME280;74572;51.834;5.820;2023-12-20T05:34:32;101527.47;;;5.69;87.92
84382;BME280;74572;51.834;5.820;2023-12-20T05:36:58;101525.81;;;5.69;87.67
84382;BME280;74572;51.834;5.820;2023-12-20T05:39:23;101534.00;;;5.67;87.80
84382;BME280;74572;51.834;5.820;2023-12-20T05:41:48;101534.00;;;5.67;87.92
84382;BME280;74572;51.834;5.820;2023-12-20T05:44:14;101535.91;;;5.69;87.78
84382;BME280;74572;51.834;5.820;2023-12-20T05:46:39;101544.16;;;5.77;87.55
84382;BME280;74572;51.834;5.820;2023-12-20T05:49:06;101548.53;;;5.79;87.42
84382;BME280;74572;51.834;5.820;2023-12-20T05:51:32;101552.34;;;5.84;87.31
84382;BME280;74572;51.834;5.820;2023-12-20T05:53:58;101557.81;;;5.89;87.33
84382;BME280;74572;51.834;5.820;2023-12-20T05:56:25;101554.25;;;5.87;87.48
84382;BME280;74572;51.834;5.820;2023-12-20T05:58:50;101564.28;;;5.96;87.44
84382;BME280;74572;51.834;5.820;2023-12-20T06:01:16;101550.50;;;5.92;86.57
84382;BME280;74572;51.834;5.820;2023-12-20T06:03:44;101560.59;;;6.02;86.70
84382;BME280;74572;51.834;5.820;2023-12-20T06:06:11;101569.44;;;6.07;86.36
84382;BME280;74572;51.834;5.820;2023-12-20T06:08:38;101570.72;;;6.12;85.95
84382;BME280;74572;51.834;5.820;2023-12-20T06:11:05;101578.16;;;6.11;86.21
84382;BME280;74572;51.834;5.820;2023-12-20T06:13:32;101573.38;;;6.14;86.46
84382;BME280;74572;51.834;5.820;2023-12-20T06:15:58;101572.72;;;6.16;86.52
84382;BME280;74572;51.834;5.820;2023-12-20T06:18:24;101569.06;;;6.13;85.79
84382;BME280;74572;51.834;5.820;2023-12-20T06:20:49;101572.72;;;6.16;85.96
84382;BME280;74572;51.834;5.820;2023-12-20T06:23:15;101568.56;;;6.17;85.98
84382;BME280;74572;51.834;5.820;2023-12-20T06:25:40;101559.09;;;6.14;85.67
84382;BME280;74572;51.834;5.820;2023-12-20T06:28:06;101553.31;;;6.15;85.51
84382;BME280;74572;51.834;5.820;2023-12-20T06:30:32;101553.38;;;6.17;85.56
84382;BME280;74572;51.834;5.820;2023-12-20T06:32:59;101561.09;;;6.18;85.04
84382;BME280;74572;51.834;5.820;2023-12-20T06:35:25;101552.75;;;6.19;85.43
84382;BME280;74572;51.834;5.820;2023-12-20T06:37:50;101537.88;;;6.22;84.98
84382;BME280;74572;51.834;5.820;2023-12-20T06:40:16;101547.84;;;6.21;85.47
84382;BME280;74572;51.834;5.820;2023-12-20T06:42:43;101546.19;;;6.21;85.31
84382;BME280;74572;51.834;5.820;2023-12-20T06:45:09;101551.00;;;6.18;85.07
84382;BME280;74572;51.834;5.820;2023-12-20T06:47:34;101559.59;;;6.20;85.22
84382;BME280;74572;51.834;5.820;2023-12-20T06:50:01;101560.47;;;6.21;85.28
84382;BME280;74572;51.834;5.820;2023-12-20T06:52:31;101560.47;;;6.21;85.06
84382;BME280;74572;51.834;5.820;2023-12-20T06:54:56;101559.09;;;6.24;84.95
84382;BME280;74572;51.834;5.820;2023-12-20T06:57:23;101564.91;;;6.23;84.83
84382;BME280;74572;51.834;5.820;2023-12-20T06:59:51;101547.97;;;6.22;84.83
84382;BME280;74572;51.834;5.820;2023-12-20T07:02:18;101541.28;;;6.23;84.40
84382;BME280;74572;51.834;5.820;2023-12-20T07:04:47;101539.63;;;6.23;84.36
84382;BME280;74572;51.834;5.820;2023-12-20T07:07:12;101546.59;;;6.26;84.42
84382;BME280;74572;51.834;5.820;2023-12-20T07:09:40;101536.34;;;6.24;83.90
84382;BME280;74572;51.834;5.820;2023-12-20T07:12:08;101538.88;;;6.24;84.08
84382;BME280;74572;51.834;5.820;2023-12-20T07:14:34;101538.75;;;6.23;83.99
84382;BME280;74572;51.834;5.820;2023-12-20T07:17:01;101536.97;;;6.22;84.28
84382;BME280;74572;51.834;5.820;2023-12-20T07:19:26;101543.16;;;6.26;84.60
84382;BME280;74572;51.834;5.820;2023-12-20T07:21:54;101528.66;;;6.23;84.38
84382;BME280;74572;51.834;5.820;2023-12-20T07:24:21;101532.19;;;6.25;84.11
84382;BME280;74572;51.834;5.820;2023-12-20T07:26:50;101537.50;;;6.28;83.58
84382;BME280;74572;51.834;5.820;2023-12-20T07:29:27;101541.03;;;6.30;83.95
84382;BME280;74572;51.834;5.820;2023-12-20T07:31:53;101522.84;;;6.24;83.87
84382;BME280;74572;51.834;5.820;2023-12-20T07:34:23;101547.97;;;6.33;84.04
84382;BME280;74572;51.834;5.820;2023-12-20T07:36:51;101540.41;;;6.33;84.19
84382;BME280;74572;51.834;5.820;2023-12-20T07:39:24;101543.69;;;6.32;83.78
84382;BME280;74572;51.834;5.820;2023-12-20T07:41:51;101537.88;;;6.33;83.96
84382;BME280;74572;51.834;5.820;2023-12-20T07:44:22;101527.91;;;6.34;83.42
84382;BME280;74572;51.834;5.820;2023-12-20T07:46:48;101538.22;;;6.37;83.36
84382;BME280;74572;51.834;5.820;2023-12-20T07:49:17;101548.34;;;6.37;83.25
84382;BME280;74572;51.834;5.820;2023-12-20T07:51:46;101543.28;;;6.37;83.64
84382;BME280;74572;51.834;5.820;2023-12-20T07:54:13;101544.16;;;6.38;83.35
84382;BME280;74572;51.834;5.820;2023-12-20T07:56:40;101539.38;;;6.41;83.42
84382;BME280;74572;51.834;5.820;2023-12-20T07:59:06;101543.03;;;6.44;82.97
84382;BME280;74572;51.834;5.820;2023-12-20T08:01:31;101544.78;;;6.45;83.42
84382;BME280;74572;51.834;5.820;2023-12-20T08:03:58;101542.16;;;6.44;83.35
84382;BME280;74572;51.834;5.820;2023-12-20T08:06:24;101551.75;;;6.48;83.08
84382;BME280;74572;51.834;5.820;2023-12-20T08:08:49;101543.16;;;6.46;82.98
84382;BME280;74572;51.834;5.820;2023-12-20T08:11:15;101553.50;;;6.49;82.92
84382;BME280;74572;51.834;5.820;2023-12-20T08:13:40;101565.16;;;6.47;82.80
84382;BME280;74572;51.834;5.820;2023-12-20T08:16:06;101553.00;;;6.43;82.84
84382;BME280;74572;51.834;5.820;2023-12-20T08:18:32;101558.94;;;6.43;83.28
84382;BME280;74572;51.834;5.820;2023-12-20T08:20:57;101564.88;;;6.44;83.23
84382;BME280;74572;51.834;5.820;2023-12-20T08:23:23;101559.56;;;6.41;83.05
84382;BME280;74572;51.834;5.820;2023-12-20T08:25:48;101570.56;;;6.41;83.31
84382;BME280;74572;51.834;5.820;2023-12-20T08:28:20;101563.13;;;6.43;83.23
84382;BME280;74572;51.834;5.820;2023-12-20T08:30:48;101565.78;;;6.44;83.09
84382;BME280;74572;51.834;5.820;2023-12-20T08:33:19;101558.06;;;6.43;83.41
84382;BME280;74572;51.834;5.820;2023-12-20T08:35:50;101551.75;;;6.48;83.00
84382;BME280;74572;51.834;5.820;2023-12-20T08:38:16;101554.28;;;6.48;82.67
84382;BME280;74572;51.834;5.820;2023-12-20T08:40:47;101544.91;;;6.37;82.75
84382;BME280;74572;51.834;5.820;2023-12-20T08:43:15;101555.28;;;6.40;83.37
84382;BME280;74572;51.834;5.820;2023-12-20T08:45:42;101534.09;;;6.28;83.19
84382;BME280;74572;51.834;5.820;2023-12-20T08:48:09;101537.88;;;6.33;83.70
84382;BME280;74572;51.834;5.820;2023-12-20T08:50:34;101535.09;;;6.30;83.46
84382;BME280;74572;51.834;5.820;2023-12-20T08:53:03;101533.31;;;6.29;83.54
84382;BME280;74572;51.834;5.820;2023-12-20T08:55:29;101528.28;;;6.29;83.53
84382;BME280;74572;51.834;5.820;2023-12-20T08:57:59;101528.28;;;6.29;83.46
84382;BME280;74572;51.834;5.820;2023-12-20T09:00:30;101520.44;;;6.26;83.41
84382;BME280;74572;51.834;5.820;2023-12-20T09:02:58;101525.63;;;6.27;83.78
84382;BME280;74572;51.834;5.820;2023-12-20T09:05:25;101527.13;;;6.25;83.59
84382;BME280;74572;51.834;5.820;2023-12-20T09:07:55;101518.66;;;6.24;83.50
84382;BME280;74572;51.834;5.820;2023-12-20T09:10:21;101517.03;;;6.25;83.56
84382;BME280;74572;51.834;5.820;2023-12-20T09:13:02;101531.06;;;6.32;83.53
84382;BME280;74572;51.834;5.820;2023-12-20T09:15:29;101538.34;;;6.39;83.16
84382;BME280;74572;51.834;5.820;2023-12-20T09:17:58;101539.38;;;6.41;83.16
84382;BME280;74572;51.834;5.820;2023-12-20T09:20:27;101529.50;;;6.44;83.04
84382;BME280;74572;51.834;5.820;2023-12-20T09:22:56;101535.06;;;6.50;82.95
84382;BME280;74572;51.834;5.820;2023-12-20T09:25:23;101534.94;;;6.48;82.75
84382;BME280;74572;51.834;5.820;2023-12-20T09:27:50;101527.34;;;6.48;82.88
84382;BME280;74572;51.834;5.820;2023-12-20T09:30:15;101541.13;;;6.52;83.07
84382;BME280;74572;51.834;5.820;2023-12-20T09:32:41;101545.53;;;6.54;83.35
84382;BME280;74572;51.834;5.820;2023-12-20T09:35:06;101537.84;;;6.53;83.37
84382;BME280;74572;51.834;5.820;2023-12-20T09:37:35;101546.19;;;6.52;83.31
84382;BME280;74572;51.834;5.820;2023-12-20T09:40:01;101538.47;;;6.50;83.63
84382;BME280;74572;51.834;5.820;2023-12-20T09:42:43;101535.53;;;6.56;83.82
84382;BME280;74572;51.834;5.820;2023-12-20T09:45:15;101530.34;;;6.54;83.40
84382;BME280;74572;51.834;5.820;2023-12-20T09:47:54;101536.94;;;6.63;83.88
84382;BME280;74572;51.834;5.820;2023-12-20T09:50:22;101531.88;;;6.63;83.41
84382;BME280;74572;51.834;5.820;2023-12-20T09:52:52;101535.53;;;6.66;83.15
84382;BME280;74572;51.834;5.820;2023-12-20T09:55:19;101523.16;;;6.69;82.92
84382;BME280;74572;51.834;5.820;2023-12-20T09:57:46;101530.97;;;6.72;82.90
84382;BME280;74572;51.834;5.820;2023-12-20T10:00:12;101541.69;;;6.80;82.88
84382;BME280;74572;51.834;5.820;2023-12-20T10:02:43;101537.50;;;6.80;83.07
84382;BME280;74572;51.834;5.820;2023-12-20T10:05:16;101532.19;;;6.87;82.41
84382;BME280;74572;51.834;5.820;2023-12-20T10:07:41;101550.00;;;6.89;82.85
84382;BME280;74572;51.834;5.820;2023-12-20T10:10:07;101541.03;;;6.82;82.84
84382;BME280;74572;51.834;5.820;2023-12-20T10:12:34;101539.91;;;6.89;82.86
84382;BME280;74572;51.834;5.820;2023-12-20T10:14:59;101545.28;;;6.93;82.50
84382;BME280;74572;51.834;5.820;2023-12-20T10:17:27;101543.56;;;6.92;82.94
84382;BME280;74572;51.834;5.820;2023-12-20T10:19:55;101534.22;;;6.91;82.84
84382;BME280;74572;51.834;5.820;2023-12-20T10:22:21;101535.44;;;6.97;82.41
84382;BME280;74572;51.834;5.820;2023-12-20T10:24:47;101543.50;;;7.03;82.56
84382;BME280;74572;51.834;5.820;2023-12-20T10:27:13;101540.84;;;7.01;82.02
84382;BME280;74572;51.834;5.820;2023-12-20T10:29:38;101542.63;;;7.02;82.07
84382;BME280;74572;51.834;5.820;2023-12-20T10:32:30;101541.38;;;6.97;82.35
84382;BME280;74572;51.834;5.820;2023-12-20T10:34:57;101529.16;;;6.91;82.64
84382;BME280;74572;51.834;5.820;2023-12-20T10:37:24;101538.97;;;6.99;82.15
84382;BME280;74572;51.834;5.820;2023-12-20T10:39:52;101535.16;;;7.04;82.53
84382;BME280;74572;51.834;5.820;2023-12-20T10:42:26;101533.50;;;7.04;82.00
84382;BME280;74572;51.834;5.820;2023-12-20T10:44:52;101531.09;;;7.06;82.03
84382;BME280;74572;51.834;5.820;2023-12-20T10:47:20;101524.69;;;6.99;82.70
84382;BME280;74572;51.834;5.820;2023-12-20T10:49:51;101520.25;;;6.97;82.80
84382;BME280;74572;51.834;5.820;2023-12-20T10:52:17;101529.59;;;6.98;83.19
84382;BME280;74572;51.834;5.820;2023-12-20T10:54:44;101525.28;;;7.07;83.12
84382;BME280;74572;51.834;5.820;2023-12-20T10:57:10;101518.34;;;7.04;82.77
84382;BME280;74572;51.834;5.820;2023-12-20T10:59:37;101519.91;;;7.14;83.07
84382;BME280;74572;51.834;5.820;2023-12-20T11:02:04;101519.13;;;7.25;82.70
84382;BME280;74572;51.834;5.820;2023-12-20T11:04:57;101519.81;;;7.34;82.33
84382;BME280;74572;51.834;5.820;2023-12-20T11:07:32;101524.47;;;7.40;82.56
84382;BME280;74572;51.834;5.820;2023-12-20T11:13:08;101505.34;;;7.43;82.29
84382;BME280;74572;51.834;5.820;2023-12-20T11:15:38;101497.94;;;7.56;81.95
84382;BME280;74572;51.834;5.820;2023-12-20T11:18:04;101500.16;;;7.63;81.94
84382;BME280;74572;51.834;5.820;2023-12-20T11:20:40;101491.28;;;7.69;81.31
84382;BME280;74572;51.834;5.820;2023-12-20T11:23:07;101477.88;;;7.81;80.91
84382;BME280;74572;51.834;5.820;2023-12-20T11:25:47;101485.66;;;8.06;81.24
84382;BME280;74572;51.834;5.820;2023-12-20T11:28:14;101469.00;;;8.10;80.46
84382;BME280;74572;51.834;5.820;2023-12-20T11:30:42;101469.09;;;8.11;80.09
84382;BME280;74572;51.834;5.820;2023-12-20T11:33:08;101462.72;;;8.16;80.29
84382;BME280;74572;51.834;5.820;2023-12-20T11:35:34;101475.28;;;8.15;80.31
84382;BME280;74572;51.834;5.820;2023-12-20T11:38:00;101460.50;;;8.09;80.17
84382;BME280;74572;51.834;5.820;2023-12-20T11:40:26;101461.28;;;8.08;80.24
84382;BME280;74572;51.834;5.820;2023-12-20T11:42:58;101460.09;;;8.03;80.15
84382;BME280;74572;51.834;5.820;2023-12-20T11:45:25;101460.84;;;8.02;80.11
84382;BME280;74572;51.834;5.820;2023-12-20T11:47:52;101460.38;;;7.96;80.46
84382;BME280;74572;51.834;5.820;2023-12-20T11:50:22;101464.22;;;7.91;80.52
84382;BME280;74572;51.834;5.820;2023-12-20T11:52:49;101461.56;;;7.89;80.87
84382;BME280;74572;51.834;5.820;2023-12-20T11:55:17;101467.75;;;7.93;81.02
84382;BME280;74572;51.834;5.820;2023-12-20T11:57:43;101463.69;;;7.95;80.52
84382;BME280;74572;51.834;5.820;2023-12-20T12:00:10;101465.38;;;8.06;80.62
84382;BME280;74572;51.834;5.820;2023-12-20T12:02:37;101463.72;;;8.18;80.78
84382;BME280;74572;51.834;5.820;2023-12-20T12:05:02;101467.38;;;8.22;80.08
84382;BME280;74572;51.834;5.820;2023-12-20T12:07:33;101464.72;;;8.20;80.47
84382;BME280;74572;51.834;5.820;2023-12-20T12:09:58;101456.91;;;8.17;80.03
84382;BME280;74572;51.834;5.820;2023-12-20T12:12:24;101455.66;;;8.12;80.34
84382;BME280;74572;51.834;5.820;2023-12-20T12:14:52;101445.22;;;8.08;80.77
84382;BME280;74572;51.834;5.820;2023-12-20T12:17:19;101443.47;;;8.07;80.55
84382;BME280;74572;51.834;5.820;2023-12-20T12:19:44;101438.59;;;8.10;80.75
84382;BME280;74572;51.834;5.820;2023-12-20T12:22:12;101434.63;;;8.13;80.44
84382;BME280;74572;51.834;5.820;2023-12-20T12:24:43;101436.63;;;8.17;80.79
84382;BME280;74572;51.834;5.820;2023-12-20T12:27:11;101431.91;;;8.22;80.91
84382;BME280;74572;51.834;5.820;2023-12-20T12:29:37;101426.81;;;8.22;80.81
84382;BME280;74572;51.834;5.820;2023-12-20T12:32:09;101432.25;;;8.26;80.89
84382;BME280;74572;51.834;5.820;2023-12-20T12:34:38;101424.81;;;8.29;80.62
84382;BME280;74572;51.834;5.820;2023-12-20T12:37:05;101423.28;;;8.31;81.02
84382;BME280;74572;51.834;5.820;2023-12-20T12:39:31;101430.50;;;8.37;80.87
84382;BME280;74572;51.834;5.820;2023-12-20T12:41:58;101417.28;;;8.41;80.51
84382;BME280;74572;51.834;5.820;2023-12-20T12:44:25;101424.75;;;8.51;80.27
84382;BME280;74572;51.834;5.820;2023-12-20T12:46:51;101418.25;;;8.43;79.92
84382;BME280;74572;51.834;5.820;2023-12-20T12:49:20;101418.81;;;8.39;80.70
84382;BME280;74572;51.834;5.820;2023-12-20T12:51:47;101414.56;;;8.28;80.82
84382;BME280;74572;51.834;5.820;2023-12-20T12:54:16;101405.44;;;8.18;80.94
84382;BME280;74572;51.834;5.820;2023-12-20T12:56:45;101394.22;;;8.03;81.30
84382;BME280;74572;51.834;5.820;2023-12-20T12:59:13;101394.44;;;8.06;81.44
84382;BME280;74572;51.834;5.820;2023-12-20T13:01:39;101390.44;;;8.10;81.59